Airfield :
LOGIN :

Register | Disclaimer

   EN    FR    IT 

 










Legend :    VFR   Marginal VFR   IFR   Intensive IFR   Very Intensive IFR
Visi :
Ceiling :
>= 8 km
>= 3000ft
5 to 8 km
1000 to 3000 ft
1500m to 5 km
500 to 1000 ft
800 to 1500m
200 to 500 ft
< 800m
< 200 ft
Symbols :   Thunderstorms  Fog  Heavy snow  Heavy precipitations  Wind > 20 kt
SIGMETs :     Misc.  Thunderstorms  Icing  Turbulence  Mountain Waves  Volcanic Ashes






- Airport Elevation : 1197 ft
- IATA code : SPM


ETAD - Spangdahlem Ab

CURRENT METAR :
  • 171936Z AUTO 21011KT 9999 OVC005 13/13 A2987 RMK AO2 RAE27DZB27E36 CIG 004 RWY05 CIG 004 RWY24 SLP104 $

EXPIRED METARs :
  • 171926Z AUTO 20009KT 9999 -RA OVC004 13/12 A2987 RMK AO2 SLP104 $
  • 171856Z AUTO 21012KT 9999 -RA OVC005 13/13 A2987 RMK AO2 RAE07DZB07E17RAB51 SLP104 P0002 T01270125 $
  • 171847Z AUTO 20012KT 9999 OVC004 13/12 A2987 RMK AO2 RAE07DZB07E17 SLP104 $
  • 171817Z AUTO 18011KT 9999 OVC005 13/12 A2987 RMK AO2 RAE07DZB07E17 CIG 005V007 SLP104 $
  • 171811Z AUTO 19009KT 9999 -DZ SCT004 OVC007 13/12 A2987 RMK AO2 RAE07DZB07 CIG 005 RWY05 SLP104 $
  • 171756Z AUTO 18011KT 9999 -RA OVC006 13/12 A2987 RMK AO2 DZE1657RAB51 CIG 005 RWY05 CIG 005 RWY24 SLP104 P0000 60022 T01260124 10132 20125 55003 $
  • 171712Z AUTO 17007KT 9000 BR BKN006 13/12 A2986 RMK AO2 DZE1657 CIG 005 RWY05 SLP100 $
  • 171701Z 16006KT 9999 BKN007 OVC010 13/12 A2986 RMK DZE1657 SLPNO

TAF AMD TAF ETAD
Valid from the 17 at 14:00 until the 18 at 18:00 UTC


171400Z 1714/1818 20012KT 8000 -RA OVC007 620809 QNH2985INS
BECMG 1720/1721 20012KT 9999 NSW SCT005 BKN009 QNH2984INS
BECMG 1805/1806 18012KT 9000 -SHRA FEW005 BKN008 OVC030 QNH2983INS
BECMG 1813/1814 18010G15KT 9999 NSW BKN020 QNH2981INS TX13/1814Z TN11/1804Z



MET'MAP, your aeronautical weather chart ! - Copyright ORBIFLY December 2007 - Disclaimer

ORBIFLY MET'MAP TEAM :

Programming & Development : Alexandra Zaïnal
Concept & Development : Baudouin d'Aumeries
Co-Development & Prog : Marc-Olivier Méhu
Technical & hardware support : Manuel Goepfert

Contact : metmap@orbifly.com




SOURCES & CREDITS :

   NOAA